sensor_id;sensor_type;location;lat;lon;timestamp;P1;durP1;ratioP1;P2;durP2;ratioP2
75450;SDS011;64029;48.244;9.188;2024-02-28T00:01:03;29.50;;;17.73;;
75450;SDS011;64029;48.244;9.188;2024-02-28T00:03:30;31.57;;;18.03;;
75450;SDS011;64029;48.244;9.188;2024-02-28T00:05:58;32.93;;;20.00;;
75450;SDS011;64029;48.244;9.188;2024-02-28T00:08:25;37.90;;;19.30;;
75450;SDS011;64029;48.244;9.188;2024-02-28T00:10:52;31.40;;;18.73;;
75450;SDS011;64029;48.244;9.188;2024-02-28T00:13:18;36.57;;;20.90;;
75450;SDS011;64029;48.244;9.188;2024-02-28T00:15:47;37.93;;;21.00;;
75450;SDS011;64029;48.244;9.188;2024-02-28T00:18:16;32.53;;;20.00;;
75450;SDS011;64029;48.244;9.188;2024-02-28T00:20:43;33.20;;;20.27;;
75450;SDS011;64029;48.244;9.188;2024-02-28T00:23:10;34.23;;;20.80;;
75450;SDS011;64029;48.244;9.188;2024-02-28T00:25:37;35.13;;;19.00;;
75450;SDS011;64029;48.244;9.188;2024-02-28T00:28:04;35.40;;;20.50;;
75450;SDS011;64029;48.244;9.188;2024-02-28T00:30:31;40.50;;;20.10;;
75450;SDS011;64029;48.244;9.188;2024-02-28T00:32:58;34.40;;;19.57;;
75450;SDS011;64029;48.244;9.188;2024-02-28T00:35:27;39.53;;;21.23;;
75450;SDS011;64029;48.244;9.188;2024-02-28T00:37:57;37.87;;;22.17;;
75450;SDS011;64029;48.244;9.188;2024-02-28T00:40:24;40.67;;;21.17;;
75450;SDS011;64029;48.244;9.188;2024-02-28T00:42:51;34.47;;;20.63;;
75450;SDS011;64029;48.244;9.188;2024-02-28T00:45:18;37.67;;;21.60;;
75450;SDS011;64029;48.244;9.188;2024-02-28T00:47:45;30.80;;;18.57;;
75450;SDS011;64029;48.244;9.188;2024-02-28T00:50:11;34.27;;;18.50;;
75450;SDS011;64029;48.244;9.188;2024-02-28T00:52:40;35.87;;;20.67;;
75450;SDS011;64029;48.244;9.188;2024-02-28T00:55:06;31.57;;;19.57;;
75450;SDS011;64029;48.244;9.188;2024-02-28T00:57:33;31.00;;;19.17;;
75450;SDS011;64029;48.244;9.188;2024-02-28T01:00:00;33.80;;;19.33;;
75450;SDS011;64029;48.244;9.188;2024-02-28T01:02:27;30.13;;;19.60;;
75450;SDS011;64029;48.244;9.188;2024-02-28T01:04:54;34.53;;;20.67;;
75450;SDS011;64029;48.244;9.188;2024-02-28T01:07:21;32.60;;;19.20;;
75450;SDS011;64029;48.244;9.188;2024-02-28T01:09:49;33.50;;;20.17;;
75450;SDS011;64029;48.244;9.188;2024-02-28T01:12:16;31.90;;;19.07;;
75450;SDS011;64029;48.244;9.188;2024-02-28T01:14:43;35.03;;;19.83;;
75450;SDS011;64029;48.244;9.188;2024-02-28T01:17:10;31.93;;;18.47;;
75450;SDS011;64029;48.244;9.188;2024-02-28T01:19:37;33.47;;;20.07;;
75450;SDS011;64029;48.244;9.188;2024-02-28T01:22:03;38.10;;;21.30;;
75450;SDS011;64029;48.244;9.188;2024-02-28T01:24:30;29.63;;;17.80;;
75450;SDS011;64029;48.244;9.188;2024-02-28T01:27:00;32.40;;;19.00;;
75450;SDS011;64029;48.244;9.188;2024-02-28T01:29:26;30.53;;;18.67;;
75450;SDS011;64029;48.244;9.188;2024-02-28T01:31:55;33.20;;;19.27;;
75450;SDS011;64029;48.244;9.188;2024-02-28T01:34:22;32.23;;;18.80;;
75450;SDS011;64029;48.244;9.188;2024-02-28T01:36:48;29.70;;;18.80;;
75450;SDS011;64029;48.244;9.188;2024-02-28T01:39:15;34.83;;;19.93;;
75450;SDS011;64029;48.244;9.188;2024-02-28T01:41:49;36.20;;;18.73;;
75450;SDS011;64029;48.244;9.188;2024-02-28T01:44:18;27.33;;;17.70;;
75450;SDS011;64029;48.244;9.188;2024-02-28T01:46:45;33.63;;;18.57;;
75450;SDS011;64029;48.244;9.188;2024-02-28T01:49:12;28.37;;;17.83;;
75450;SDS011;64029;48.244;9.188;2024-02-28T01:51:40;30.73;;;18.13;;
75450;SDS011;64029;48.244;9.188;2024-02-28T01:54:08;29.87;;;17.50;;
75450;SDS011;64029;48.244;9.188;2024-02-28T01:56:35;28.00;;;17.50;;
75450;SDS011;64029;48.244;9.188;2024-02-28T01:59:03;29.67;;;17.20;;
75450;SDS011;64029;48.244;9.188;2024-02-28T02:01:52;30.50;;;17.00;;
75450;SDS011;64029;48.244;9.188;2024-02-28T02:04:20;26.87;;;16.47;;
75450;SDS011;64029;48.244;9.188;2024-02-28T02:06:47;32.93;;;18.80;;
75450;SDS011;64029;48.244;9.188;2024-02-28T02:09:15;29.47;;;18.40;;
75450;SDS011;64029;48.244;9.188;2024-02-28T02:11:42;29.50;;;17.60;;
75450;SDS011;64029;48.244;9.188;2024-02-28T02:14:10;33.30;;;18.20;;
75450;SDS011;64029;48.244;9.188;2024-02-28T02:16:37;30.93;;;18.67;;
75450;SDS011;64029;48.244;9.188;2024-02-28T02:19:05;32.17;;;18.80;;
75450;SDS011;64029;48.244;9.188;2024-02-28T02:21:39;30.40;;;17.90;;
75450;SDS011;64029;48.244;9.188;2024-02-28T02:24:12;33.60;;;18.33;;
75450;SDS011;64029;48.244;9.188;2024-02-28T02:26:39;28.80;;;17.83;;
75450;SDS011;64029;48.244;9.188;2024-02-28T02:29:09;25.97;;;15.37;;
75450;SDS011;64029;48.244;9.188;2024-02-28T02:31:36;28.70;;;16.63;;
75450;SDS011;64029;48.244;9.188;2024-02-28T02:34:02;23.37;;;14.60;;
75450;SDS011;64029;48.244;9.188;2024-02-28T02:36:29;29.77;;;17.47;;
75450;SDS011;64029;48.244;9.188;2024-02-28T02:38:56;25.70;;;15.20;;
75450;SDS011;64029;48.244;9.188;2024-02-28T02:41:24;25.60;;;14.83;;
75450;SDS011;64029;48.244;9.188;2024-02-28T02:43:51;26.00;;;14.97;;
75450;SDS011;64029;48.244;9.188;2024-02-28T02:46:18;25.90;;;14.70;;
75450;SDS011;64029;48.244;9.188;2024-02-28T02:48:45;27.23;;;14.97;;
75450;SDS011;64029;48.244;9.188;2024-02-28T02:51:12;23.30;;;13.97;;
75450;SDS011;64029;48.244;9.188;2024-02-28T02:53:39;23.37;;;14.80;;
75450;SDS011;64029;48.244;9.188;2024-02-28T02:56:06;24.60;;;15.57;;
75450;SDS011;64029;48.244;9.188;2024-02-28T02:58:35;29.03;;;17.30;;
75450;SDS011;64029;48.244;9.188;2024-02-28T03:01:01;31.77;;;17.50;;
75450;SDS011;64029;48.244;9.188;2024-02-28T03:03:29;26.57;;;15.70;;
75450;SDS011;64029;48.244;9.188;2024-02-28T03:05:55;29.70;;;16.37;;
75450;SDS011;64029;48.244;9.188;2024-02-28T03:08:22;25.73;;;16.00;;
75450;SDS011;64029;48.244;9.188;2024-02-28T03:10:49;27.63;;;17.80;;
75450;SDS011;64029;48.244;9.188;2024-02-28T03:13:16;27.73;;;17.80;;
75450;SDS011;64029;48.244;9.188;2024-02-28T03:15:45;25.37;;;15.37;;
75450;SDS011;64029;48.244;9.188;2024-02-28T03:18:11;27.97;;;16.57;;
75450;SDS011;64029;48.244;9.188;2024-02-28T03:20:38;59.70;;;34.10;;
75450;SDS011;64029;48.244;9.188;2024-02-28T03:23:05;48.87;;;30.03;;
75450;SDS011;64029;48.244;9.188;2024-02-28T03:25:32;35.43;;;21.40;;
75450;SDS011;64029;48.244;9.188;2024-02-28T03:27:59;31.13;;;18.53;;
75450;SDS011;64029;48.244;9.188;2024-02-28T03:30:27;24.73;;;16.50;;
75450;SDS011;64029;48.244;9.188;2024-02-28T03:32:55;27.67;;;16.17;;
75450;SDS011;64029;48.244;9.188;2024-02-28T03:35:22;25.10;;;15.00;;
75450;SDS011;64029;48.244;9.188;2024-02-28T03:37:48;26.07;;;15.90;;
75450;SDS011;64029;48.244;9.188;2024-02-28T03:40:15;26.03;;;16.23;;
75450;SDS011;64029;48.244;9.188;2024-02-28T03:42:42;27.73;;;15.80;;
75450;SDS011;64029;48.244;9.188;2024-02-28T03:45:09;26.60;;;17.17;;
75450;SDS011;64029;48.244;9.188;2024-02-28T03:47:35;34.53;;;21.83;;
75450;SDS011;64029;48.244;9.188;2024-02-28T03:50:04;36.33;;;20.80;;
75450;SDS011;64029;48.244;9.188;2024-02-28T03:52:32;28.60;;;17.07;;
75450;SDS011;64029;48.244;9.188;2024-02-28T03:54:58;30.60;;;18.27;;
75450;SDS011;64029;48.244;9.188;2024-02-28T03:57:25;26.83;;;16.80;;
75450;SDS011;64029;48.244;9.188;2024-02-28T03:59:52;24.70;;;15.83;;
75450;SDS011;64029;48.244;9.188;2024-02-28T04:02:19;23.90;;;14.57;;
75450;SDS011;64029;48.244;9.188;2024-02-28T04:04:45;26.60;;;16.73;;
75450;SDS011;64029;48.244;9.188;2024-02-28T04:07:14;25.93;;;15.30;;
75450;SDS011;64029;48.244;9.188;2024-02-28T04:09:40;29.43;;;15.27;;
75450;SDS011;64029;48.244;9.188;2024-02-28T04:12:07;22.33;;;14.50;;
75450;SDS011;64029;48.244;9.188;2024-02-28T04:14:37;29.70;;;17.27;;
75450;SDS011;64029;48.244;9.188;2024-02-28T04:17:03;27.90;;;16.00;;
75450;SDS011;64029;48.244;9.188;2024-02-28T04:19:32;24.97;;;14.93;;
75450;SDS011;64029;48.244;9.188;2024-02-28T04:22:01;27.93;;;16.00;;
75450;SDS011;64029;48.244;9.188;2024-02-28T04:24:29;28.10;;;16.47;;
75450;SDS011;64029;48.244;9.188;2024-02-28T04:26:57;29.50;;;16.07;;
75450;SDS011;64029;48.244;9.188;2024-02-28T04:29:24;28.00;;;16.80;;
75450;SDS011;64029;48.244;9.188;2024-02-28T04:31:51;26.93;;;16.43;;
75450;SDS011;64029;48.244;9.188;2024-02-28T04:34:18;23.57;;;15.60;;
75450;SDS011;64029;48.244;9.188;2024-02-28T04:36:45;26.03;;;15.70;;
75450;SDS011;64029;48.244;9.188;2024-02-28T04:39:12;25.00;;;15.30;;
75450;SDS011;64029;48.244;9.188;2024-02-28T04:41:40;29.87;;;15.50;;
75450;SDS011;64029;48.244;9.188;2024-02-28T04:44:06;36.27;;;18.87;;
75450;SDS011;64029;48.244;9.188;2024-02-28T04:46:33;29.50;;;16.93;;
75450;SDS011;64029;48.244;9.188;2024-02-28T04:49:00;28.43;;;15.93;;
75450;SDS011;64029;48.244;9.188;2024-02-28T04:51:27;30.63;;;15.10;;
75450;SDS011;64029;48.244;9.188;2024-02-28T04:53:54;21.50;;;14.40;;
75450;SDS011;64029;48.244;9.188;2024-02-28T04:56:20;25.20;;;14.13;;
75450;SDS011;64029;48.244;9.188;2024-02-28T04:58:49;25.90;;;15.00;;
75450;SDS011;64029;48.244;9.188;2024-02-28T05:01:16;24.67;;;14.70;;
75450;SDS011;64029;48.244;9.188;2024-02-28T05:03:43;23.83;;;14.47;;
75450;SDS011;64029;48.244;9.188;2024-02-28T05:06:10;30.87;;;16.43;;
75450;SDS011;64029;48.244;9.188;2024-02-28T05:08:37;30.63;;;16.27;;
75450;SDS011;64029;48.244;9.188;2024-02-28T05:11:04;34.50;;;16.90;;
75450;SDS011;64029;48.244;9.188;2024-02-28T05:13:31;33.30;;;17.73;;
75450;SDS011;64029;48.244;9.188;2024-02-28T05:15:59;25.97;;;15.47;;
75450;SDS011;64029;48.244;9.188;2024-02-28T05:18:26;22.70;;;14.87;;
75450;SDS011;64029;48.244;9.188;2024-02-28T05:20:52;22.03;;;13.80;;
75450;SDS011;64029;48.244;9.188;2024-02-28T05:23:20;25.90;;;15.40;;
75450;SDS011;64029;48.244;9.188;2024-02-28T05:25:46;25.70;;;14.37;;
75450;SDS011;64029;48.244;9.188;2024-02-28T05:28:13;25.77;;;15.00;;
75450;SDS011;64029;48.244;9.188;2024-02-28T05:30:40;23.13;;;14.63;;
75450;SDS011;64029;48.244;9.188;2024-02-28T05:33:08;22.57;;;14.47;;
75450;SDS011;64029;48.244;9.188;2024-02-28T05:35:36;27.10;;;15.13;;
75450;SDS011;64029;48.244;9.188;2024-02-28T05:38:03;20.53;;;13.53;;
75450;SDS011;64029;48.244;9.188;2024-02-28T05:40:30;25.90;;;14.50;;
75450;SDS011;64029;48.244;9.188;2024-02-28T05:42:57;22.80;;;14.40;;
75450;SDS011;64029;48.244;9.188;2024-02-28T05:45:24;26.07;;;14.63;;
75450;SDS011;64029;48.244;9.188;2024-02-28T05:47:50;21.10;;;13.73;;
75450;SDS011;64029;48.244;9.188;2024-02-28T05:50:18;24.23;;;14.30;;
75450;SDS011;64029;48.244;9.188;2024-02-28T05:52:45;27.50;;;14.43;;
75450;SDS011;64029;48.244;9.188;2024-02-28T05:55:12;27.77;;;14.80;;
75450;SDS011;64029;48.244;9.188;2024-02-28T05:57:39;26.10;;;14.40;;
75450;SDS011;64029;48.244;9.188;2024-02-28T06:00:06;21.83;;;14.20;;
75450;SDS011;64029;48.244;9.188;2024-02-28T06:02:35;20.30;;;12.37;;
75450;SDS011;64029;48.244;9.188;2024-02-28T06:05:02;22.90;;;13.27;;
75450;SDS011;64029;48.244;9.188;2024-02-28T06:07:31;30.73;;;18.10;;
75450;SDS011;64029;48.244;9.188;2024-02-28T06:09:57;31.30;;;17.10;;
75450;SDS011;64029;48.244;9.188;2024-02-28T06:12:24;29.83;;;15.80;;
75450;SDS011;64029;48.244;9.188;2024-02-28T06:14:51;25.10;;;15.80;;
75450;SDS011;64029;48.244;9.188;2024-02-28T06:17:18;38.83;;;19.37;;
75450;SDS011;64029;48.244;9.188;2024-02-28T06:19:46;34.73;;;19.43;;
75450;SDS011;64029;48.244;9.188;2024-02-28T06:22:13;32.90;;;19.30;;
75450;SDS011;64029;48.244;9.188;2024-02-28T06:24:41;35.73;;;18.73;;
75450;SDS011;64029;48.244;9.188;2024-02-28T06:27:08;36.27;;;19.03;;
75450;SDS011;64029;48.244;9.188;2024-02-28T06:29:37;41.17;;;19.50;;
75450;SDS011;64029;48.244;9.188;2024-02-28T06:32:04;40.43;;;20.10;;
75450;SDS011;64029;48.244;9.188;2024-02-28T06:34:31;35.27;;;18.00;;
75450;SDS011;64029;48.244;9.188;2024-02-28T06:36:58;40.37;;;19.33;;
75450;SDS011;64029;48.244;9.188;2024-02-28T06:39:25;40.47;;;22.23;;
75450;SDS011;64029;48.244;9.188;2024-02-28T06:41:53;32.97;;;18.33;;
75450;SDS011;64029;48.244;9.188;2024-02-28T06:44:20;36.20;;;20.80;;
75450;SDS011;64029;48.244;9.188;2024-02-28T06:46:47;39.53;;;21.20;;
75450;SDS011;64029;48.244;9.188;2024-02-28T06:49:13;33.40;;;18.13;;
75450;SDS011;64029;48.244;9.188;2024-02-28T06:51:41;39.77;;;20.97;;
75450;SDS011;64029;48.244;9.188;2024-02-28T06:54:09;35.40;;;20.23;;
75450;SDS011;64029;48.244;9.188;2024-02-28T06:56:36;35.50;;;19.37;;
75450;SDS011;64029;48.244;9.188;2024-02-28T06:59:04;38.43;;;19.37;;
75450;SDS011;64029;48.244;9.188;2024-02-28T07:01:32;39.47;;;20.47;;
75450;SDS011;64029;48.244;9.188;2024-02-28T07:03:58;40.03;;;21.97;;
75450;SDS011;64029;48.244;9.188;2024-02-28T07:06:25;33.47;;;19.23;;
75450;SDS011;64029;48.244;9.188;2024-02-28T07:08:52;32.27;;;18.47;;
75450;SDS011;64029;48.244;9.188;2024-02-28T07:11:19;38.47;;;18.13;;
75450;SDS011;64029;48.244;9.188;2024-02-28T07:13:46;34.53;;;19.00;;
75450;SDS011;64029;48.244;9.188;2024-02-28T07:16:14;33.50;;;18.30;;
75450;SDS011;64029;48.244;9.188;2024-02-28T07:18:41;34.20;;;19.40;;
75450;SDS011;64029;48.244;9.188;2024-02-28T07:21:08;39.13;;;19.60;;
75450;SDS011;64029;48.244;9.188;2024-02-28T07:23:35;34.50;;;20.00;;
75450;SDS011;64029;48.244;9.188;2024-02-28T07:26:05;34.73;;;19.10;;
75450;SDS011;64029;48.244;9.188;2024-02-28T07:28:32;35.43;;;20.60;;
75450;SDS011;64029;48.244;9.188;2024-02-28T07:30:59;34.60;;;19.20;;
75450;SDS011;64029;48.244;9.188;2024-02-28T07:33:27;42.43;;;19.60;;
75450;SDS011;64029;48.244;9.188;2024-02-28T07:35:54;35.27;;;18.47;;
75450;SDS011;64029;48.244;9.188;2024-02-28T07:38:25;37.43;;;19.50;;
75450;SDS011;64029;48.244;9.188;2024-02-28T07:40:53;29.00;;;17.60;;
75450;SDS011;64029;48.244;9.188;2024-02-28T07:43:19;34.43;;;18.90;;
75450;SDS011;64029;48.244;9.188;2024-02-28T07:45:46;35.73;;;19.17;;
75450;SDS011;64029;48.244;9.188;2024-02-28T07:48:13;34.23;;;17.70;;
75450;SDS011;64029;48.244;9.188;2024-02-28T07:50:43;38.50;;;18.93;;
75450;SDS011;64029;48.244;9.188;2024-02-28T07:53:10;28.43;;;16.20;;
75450;SDS011;64029;48.244;9.188;2024-02-28T07:55:37;29.53;;;16.53;;
75450;SDS011;64029;48.244;9.188;2024-02-28T07:58:04;35.23;;;19.53;;
75450;SDS011;64029;48.244;9.188;2024-02-28T08:00:31;32.60;;;17.80;;
75450;SDS011;64029;48.244;9.188;2024-02-28T08:02:59;36.00;;;18.70;;
75450;SDS011;64029;48.244;9.188;2024-02-28T08:05:26;36.10;;;20.07;;
75450;SDS011;64029;48.244;9.188;2024-02-28T08:07:54;32.73;;;18.20;;
75450;SDS011;64029;48.244;9.188;2024-02-28T08:10:21;29.87;;;17.87;;
75450;SDS011;64029;48.244;9.188;2024-02-28T08:12:47;37.50;;;19.27;;
75450;SDS011;64029;48.244;9.188;2024-02-28T08:15:14;32.50;;;17.80;;
75450;SDS011;64029;48.244;9.188;2024-02-28T08:17:41;37.27;;;18.67;;
75450;SDS011;64029;48.244;9.188;2024-02-28T08:20:08;33.20;;;19.20;;
75450;SDS011;64029;48.244;9.188;2024-02-28T08:22:35;33.57;;;17.80;;
75450;SDS011;64029;48.244;9.188;2024-02-28T08:25:04;30.53;;;16.77;;
75450;SDS011;64029;48.244;9.188;2024-02-28T08:27:31;34.67;;;18.43;;
75450;SDS011;64029;48.244;9.188;2024-02-28T08:29:59;33.07;;;18.60;;
75450;SDS011;64029;48.244;9.188;2024-02-28T08:32:26;44.13;;;21.10;;
75450;SDS011;64029;48.244;9.188;2024-02-28T08:34:53;37.13;;;19.80;;
75450;SDS011;64029;48.244;9.188;2024-02-28T08:37:21;37.87;;;19.87;;
75450;SDS011;64029;48.244;9.188;2024-02-28T08:39:48;34.80;;;19.17;;
75450;SDS011;64029;48.244;9.188;2024-02-28T08:42:16;39.70;;;20.17;;
75450;SDS011;64029;48.244;9.188;2024-02-28T08:44:43;37.13;;;18.37;;
75450;SDS011;64029;48.244;9.188;2024-02-28T08:47:13;34.63;;;18.10;;
75450;SDS011;64029;48.244;9.188;2024-02-28T08:49:39;29.60;;;17.63;;
75450;SDS011;64029;48.244;9.188;2024-02-28T08:52:06;31.70;;;16.97;;
75450;SDS011;64029;48.244;9.188;2024-02-28T08:54:33;34.73;;;17.90;;
75450;SDS011;64029;48.244;9.188;2024-02-28T08:57:00;31.97;;;16.90;;
75450;SDS011;64029;48.244;9.188;2024-02-28T08:59:30;28.97;;;17.40;;
75450;SDS011;64029;48.244;9.188;2024-02-28T09:01:56;36.93;;;18.07;;
75450;SDS011;64029;48.244;9.188;2024-02-28T09:04:23;29.03;;;16.67;;
75450;SDS011;64029;48.244;9.188;2024-02-28T09:06:50;31.10;;;17.57;;
75450;SDS011;64029;48.244;9.188;2024-02-28T09:09:18;33.27;;;17.77;;
75450;SDS011;64029;48.244;9.188;2024-02-28T09:11:45;29.37;;;16.60;;
75450;SDS011;64029;48.244;9.188;2024-02-28T09:14:11;30.67;;;16.03;;
75450;SDS011;64029;48.244;9.188;2024-02-28T09:16:40;26.57;;;15.70;;
75450;SDS011;64029;48.244;9.188;2024-02-28T09:19:06;33.03;;;17.13;;
75450;SDS011;64029;48.244;9.188;2024-02-28T09:21:33;26.13;;;15.50;;
75450;SDS011;64029;48.244;9.188;2024-02-28T09:24:00;29.90;;;17.90;;
75450;SDS011;64029;48.244;9.188;2024-02-28T09:26:27;32.10;;;17.03;;
75450;SDS011;64029;48.244;9.188;2024-02-28T09:28:54;28.77;;;15.80;;
75450;SDS011;64029;48.244;9.188;2024-02-28T09:31:21;27.70;;;15.33;;
75450;SDS011;64029;48.244;9.188;2024-02-28T09:33:49;27.67;;;16.57;;
75450;SDS011;64029;48.244;9.188;2024-02-28T09:36:16;31.47;;;18.57;;
75450;SDS011;64029;48.244;9.188;2024-02-28T09:38:42;26.57;;;15.83;;
75450;SDS011;64029;48.244;9.188;2024-02-28T09:41:11;29.00;;;16.33;;
75450;SDS011;64029;48.244;9.188;2024-02-28T09:43:41;27.27;;;16.57;;
75450;SDS011;64029;48.244;9.188;2024-02-28T09:46:08;33.10;;;17.97;;
75450;SDS011;64029;48.244;9.188;2024-02-28T09:48:37;29.70;;;15.07;;
75450;SDS011;64029;48.244;9.188;2024-02-28T09:51:07;26.97;;;15.37;;
75450;SDS011;64029;48.244;9.188;2024-02-28T09:53:35;27.13;;;16.43;;
75450;SDS011;64029;48.244;9.188;2024-02-28T09:56:03;24.73;;;15.10;;
75450;SDS011;64029;48.244;9.188;2024-02-28T09:58:32;29.47;;;16.23;;
75450;SDS011;64029;48.244;9.188;2024-02-28T10:01:00;25.63;;;14.87;;
75450;SDS011;64029;48.244;9.188;2024-02-28T10:03:29;25.17;;;15.10;;
75450;SDS011;64029;48.244;9.188;2024-02-28T10:05:57;27.17;;;15.87;;
75450;SDS011;64029;48.244;9.188;2024-02-28T10:08:25;27.27;;;14.80;;
75450;SDS011;64029;48.244;9.188;2024-02-28T10:10:52;27.43;;;16.70;;
75450;SDS011;64029;48.244;9.188;2024-02-28T10:13:21;26.00;;;15.27;;
75450;SDS011;64029;48.244;9.188;2024-02-28T10:15:48;28.53;;;16.00;;
75450;SDS011;64029;48.244;9.188;2024-02-28T10:18:15;31.97;;;17.30;;
75450;SDS011;64029;48.244;9.188;2024-02-28T10:20:42;27.27;;;16.10;;
75450;SDS011;64029;48.244;9.188;2024-02-28T10:23:09;27.70;;;16.13;;
75450;SDS011;64029;48.244;9.188;2024-02-28T10:25:44;27.27;;;16.00;;
75450;SDS011;64029;48.244;9.188;2024-02-28T10:28:12;38.47;;;18.70;;
75450;SDS011;64029;48.244;9.188;2024-02-28T10:30:40;28.10;;;16.93;;
75450;SDS011;64029;48.244;9.188;2024-02-28T10:33:11;30.43;;;17.23;;
75450;SDS011;64029;48.244;9.188;2024-02-28T10:35:39;28.73;;;15.27;;
75450;SDS011;64029;48.244;9.188;2024-02-28T10:38:07;28.43;;;15.47;;
75450;SDS011;64029;48.244;9.188;2024-02-28T10:40:36;26.47;;;15.30;;
75450;SDS011;64029;48.244;9.188;2024-02-28T10:43:05;27.83;;;15.20;;
75450;SDS011;64029;48.244;9.188;2024-02-28T10:45:34;24.33;;;15.40;;
75450;SDS011;64029;48.244;9.188;2024-02-28T10:48:03;26.83;;;15.70;;
75450;SDS011;64029;48.244;9.188;2024-02-28T10:50:31;28.37;;;15.23;;
75450;SDS011;64029;48.244;9.188;2024-02-28T10:52:58;27.47;;;15.37;;
75450;SDS011;64029;48.244;9.188;2024-02-28T10:55:29;25.23;;;14.57;;
75450;SDS011;64029;48.244;9.188;2024-02-28T10:58:01;28.70;;;16.03;;
75450;SDS011;64029;48.244;9.188;2024-02-28T11:00:30;31.83;;;17.00;;
75450;SDS011;64029;48.244;9.188;2024-02-28T11:02:58;27.20;;;15.60;;
75450;SDS011;64029;48.244;9.188;2024-02-28T11:05:34;30.33;;;17.20;;
75450;SDS011;64029;48.244;9.188;2024-02-28T11:08:02;28.33;;;15.77;;
75450;SDS011;64029;48.244;9.188;2024-02-28T11:10:30;28.93;;;15.97;;
75450;SDS011;64029;48.244;9.188;2024-02-28T11:12:58;29.43;;;16.10;;
75450;SDS011;64029;48.244;9.188;2024-02-28T11:15:25;28.50;;;15.50;;
75450;SDS011;64029;48.244;9.188;2024-02-28T11:17:54;31.07;;;15.93;;
75450;SDS011;64029;48.244;9.188;2024-02-28T11:20:20;29.10;;;16.63;;
75450;SDS011;64029;48.244;9.188;2024-02-28T11:22:48;27.80;;;14.83;;
75450;SDS011;64029;48.244;9.188;2024-02-28T11:25:22;28.67;;;15.90;;
75450;SDS011;64029;48.244;9.188;2024-02-28T11:27:49;24.47;;;14.10;;
75450;SDS011;64029;48.244;9.188;2024-02-28T11:30:16;27.27;;;16.30;;
75450;SDS011;64029;48.244;9.188;2024-02-28T11:32:43;26.20;;;14.23;;
75450;SDS011;64029;48.244;9.188;2024-02-28T11:35:12;24.80;;;14.30;;
75450;SDS011;64029;48.244;9.188;2024-02-28T11:37:39;20.90;;;13.83;;
75450;SDS011;64029;48.244;9.188;2024-02-28T11:40:07;23.40;;;13.63;;
75450;SDS011;64029;48.244;9.188;2024-02-28T11:42:34;23.40;;;15.20;;
75450;SDS011;64029;48.244;9.188;2024-02-28T11:45:02;22.30;;;13.57;;
75450;SDS011;64029;48.244;9.188;2024-02-28T11:47:30;28.07;;;14.63;;
75450;SDS011;64029;48.244;9.188;2024-02-28T11:49:58;21.30;;;14.23;;
75450;SDS011;64029;48.244;9.188;2024-02-28T11:52:27;21.40;;;12.87;;
75450;SDS011;64029;48.244;9.188;2024-02-28T11:54:54;21.07;;;13.90;;
75450;SDS011;64029;48.244;9.188;2024-02-28T11:57:21;21.30;;;12.77;;
75450;SDS011;64029;48.244;9.188;2024-02-28T11:59:48;23.40;;;12.30;;
75450;SDS011;64029;48.244;9.188;2024-02-28T12:02:16;23.80;;;13.80;;
75450;SDS011;64029;48.244;9.188;2024-02-28T12:04:44;23.60;;;15.03;;
75450;SDS011;64029;48.244;9.188;2024-02-28T12:07:15;21.77;;;13.47;;
75450;SDS011;64029;48.244;9.188;2024-02-28T12:09:43;25.93;;;13.63;;
75450;SDS011;64029;48.244;9.188;2024-02-28T12:12:10;25.00;;;13.83;;
75450;SDS011;64029;48.244;9.188;2024-02-28T12:14:38;22.40;;;13.07;;
75450;SDS011;64029;48.244;9.188;2024-02-28T12:17:05;24.50;;;14.07;;
75450;SDS011;64029;48.244;9.188;2024-02-28T12:19:34;26.00;;;14.90;;
75450;SDS011;64029;48.244;9.188;2024-02-28T12:22:01;24.70;;;14.53;;
75450;SDS011;64029;48.244;9.188;2024-02-28T12:24:29;26.03;;;15.27;;
75450;SDS011;64029;48.244;9.188;2024-02-28T12:26:57;28.27;;;16.60;;
75450;SDS011;64029;48.244;9.188;2024-02-28T12:29:24;28.00;;;15.00;;
75450;SDS011;64029;48.244;9.188;2024-02-28T12:31:51;29.67;;;16.33;;
75450;SDS011;64029;48.244;9.188;2024-02-28T12:34:18;26.03;;;14.67;;
75450;SDS011;64029;48.244;9.188;2024-02-28T12:36:44;30.93;;;16.13;;
75450;SDS011;64029;48.244;9.188;2024-02-28T12:39:11;23.93;;;13.87;;
75450;SDS011;64029;48.244;9.188;2024-02-28T12:41:38;19.27;;;13.50;;
75450;SDS011;64029;48.244;9.188;2024-02-28T12:44:07;28.37;;;15.90;;
75450;SDS011;64029;48.244;9.188;2024-02-28T12:46:35;26.87;;;13.93;;
75450;SDS011;64029;48.244;9.188;2024-02-28T12:49:02;22.03;;;13.77;;
75450;SDS011;64029;48.244;9.188;2024-02-28T12:51:36;23.50;;;13.50;;
75450;SDS011;64029;48.244;9.188;2024-02-28T12:54:05;21.87;;;13.80;;
75450;SDS011;64029;48.244;9.188;2024-02-28T12:56:32;20.07;;;13.07;;
75450;SDS011;64029;48.244;9.188;2024-02-28T12:58:59;20.33;;;12.60;;
75450;SDS011;64029;48.244;9.188;2024-02-28T13:01:27;19.83;;;12.50;;
75450;SDS011;64029;48.244;9.188;2024-02-28T13:03:55;24.53;;;14.90;;
75450;SDS011;64029;48.244;9.188;2024-02-28T13:06:21;25.17;;;14.87;;
75450;SDS011;64029;48.244;9.188;2024-02-28T13:08:48;23.53;;;13.50;;
75450;SDS011;64029;48.244;9.188;2024-02-28T13:11:17;26.37;;;16.30;;
75450;SDS011;64029;48.244;9.188;2024-02-28T13:13:45;23.67;;;14.67;;
75450;SDS011;64029;48.244;9.188;2024-02-28T13:16:12;25.70;;;14.80;;
75450;SDS011;64029;48.244;9.188;2024-02-28T13:18:40;24.43;;;15.13;;
75450;SDS011;64029;48.244;9.188;2024-02-28T13:21:07;24.13;;;15.70;;
75450;SDS011;64029;48.244;9.188;2024-02-28T13:23:34;26.57;;;15.00;;
75450;SDS011;64029;48.244;9.188;2024-02-28T13:26:02;22.50;;;14.07;;
75450;SDS011;64029;48.244;9.188;2024-02-28T13:28:31;32.83;;;16.07;;
75450;SDS011;64029;48.244;9.188;2024-02-28T13:30:58;25.93;;;15.30;;
75450;SDS011;64029;48.244;9.188;2024-02-28T13:33:26;30.80;;;14.97;;
75450;SDS011;64029;48.244;9.188;2024-02-28T13:35:54;26.43;;;14.50;;
75450;SDS011;64029;48.244;9.188;2024-02-28T13:38:21;22.43;;;14.87;;
75450;SDS011;64029;48.244;9.188;2024-02-28T13:40:48;24.97;;;15.50;;
75450;SDS011;64029;48.244;9.188;2024-02-28T13:43:16;28.93;;;16.20;;
75450;SDS011;64029;48.244;9.188;2024-02-28T13:45:46;26.10;;;16.10;;
75450;SDS011;64029;48.244;9.188;2024-02-28T13:48:15;24.90;;;15.70;;
75450;SDS011;64029;48.244;9.188;2024-02-28T13:50:43;26.47;;;16.53;;
75450;SDS011;64029;48.244;9.188;2024-02-28T13:53:11;27.37;;;15.27;;
75450;SDS011;64029;48.244;9.188;2024-02-28T13:55:40;26.17;;;15.90;;
75450;SDS011;64029;48.244;9.188;2024-02-28T13:58:07;25.20;;;15.47;;
75450;SDS011;64029;48.244;9.188;2024-02-28T14:00:35;23.07;;;15.40;;
75450;SDS011;64029;48.244;9.188;2024-02-28T14:03:03;26.63;;;16.40;;
75450;SDS011;64029;48.244;9.188;2024-02-28T14:05:31;22.40;;;14.17;;
75450;SDS011;64029;48.244;9.188;2024-02-28T14:07:58;24.30;;;16.17;;
75450;SDS011;64029;48.244;9.188;2024-02-28T14:10:26;25.43;;;15.80;;
75450;SDS011;64029;48.244;9.188;2024-02-28T14:12:53;28.27;;;15.90;;
75450;SDS011;64029;48.244;9.188;2024-02-28T14:15:20;26.00;;;15.57;;
75450;SDS011;64029;48.244;9.188;2024-02-28T14:17:48;25.67;;;14.83;;
75450;SDS011;64029;48.244;9.188;2024-02-28T14:20:14;28.47;;;16.07;;
75450;SDS011;64029;48.244;9.188;2024-02-28T14:22:41;29.00;;;17.00;;